createdAt,value
2022-11-18T00:01:59.021Z,94522.47
2022-11-18T00:04:26.606Z,94528.88
2022-11-18T00:06:54.188Z,94524.84
2022-11-18T00:09:22.046Z,94515.88
2022-11-18T00:12:07.376Z,94510.28
2022-11-18T00:14:36.298Z,94512.84
2022-11-18T00:17:06.118Z,94514.88
2022-11-18T00:19:35.773Z,94511.59
2022-11-18T00:22:04.167Z,94507.19
2022-11-18T00:24:32.185Z,94508.09
2022-11-18T00:26:59.755Z,94500.69
2022-11-18T00:29:28.357Z,94503.38
2022-11-18T00:31:57.990Z,94497.63
2022-11-18T00:34:26.220Z,94491.09
2022-11-18T00:36:53.803Z,94489.97
2022-11-18T00:39:22.093Z,94483.25
2022-11-18T00:42:07.733Z,94484.34
2022-11-18T00:44:35.654Z,94471.59
2022-11-18T00:47:04.563Z,94464.88
2022-11-18T00:49:32.320Z,94469.53
2022-11-18T00:51:59.869Z,94474.44
2022-11-18T00:54:27.417Z,94469.34
2022-11-18T00:56:55.018Z,94467.72
2022-11-18T00:59:22.553Z,94457.91
2022-11-18T01:01:50.232Z,94464.75
2022-11-18T01:04:19.228Z,94472.13
2022-11-18T01:06:46.749Z,94460.44
2022-11-18T01:09:14.446Z,94475.03
2022-11-18T01:11:59.867Z,94482.03
2022-11-18T01:14:27.735Z,94475.56
2022-11-18T01:16:56.119Z,94462.47
2022-11-18T01:19:25.836Z,94462.28
2022-11-18T01:21:53.430Z,94462.63
2022-11-18T01:24:20.977Z,94466.28
2022-11-18T01:26:48.659Z,94463.88
2022-11-18T01:29:16.561Z,94470.53
2022-11-18T01:32:08.749Z,94464.38
2022-11-18T01:34:33.172Z,94475.13
2022-11-18T01:37:00.721Z,94460.88
2022-11-18T01:39:28.302Z,94462.50
2022-11-18T01:41:55.845Z,94456.50
2022-11-18T01:44:57.652Z,94458.88
2022-11-18T01:47:26.825Z,94462.91
2022-11-18T01:49:55.915Z,94475.25
2022-11-18T01:52:24.377Z,94478.22
2022-11-18T01:54:56.726Z,94482.19
2022-11-18T01:57:27.526Z,94484.53
2022-11-18T01:59:58.397Z,94491.06
2022-11-18T02:02:25.953Z,94493.97
2022-11-18T02:04:57.513Z,94484.34
2022-11-18T02:07:26.343Z,94496.75
2022-11-18T02:09:55.530Z,94496.25
2022-11-18T02:12:23.233Z,94500.75
2022-11-18T02:14:52.544Z,94498.94
2022-11-18T02:17:32.959Z,94507.03
2022-11-18T02:20:23.744Z,94503.38
2022-11-18T02:23:21.964Z,94497.38
2022-11-18T02:26:06.076Z,94485.53
2022-11-18T02:28:39.056Z,94481.06
2022-11-18T02:31:15.814Z,94486.13
2022-11-18T02:33:52.702Z,94478.53
2022-11-18T02:36:27.843Z,94495.88
2022-11-18T02:39:00.243Z,94497.34
2022-11-18T02:41:31.101Z,94495.91
2022-11-18T02:44:04.699Z,94501.66
2022-11-18T02:46:36.832Z,94507.41
2022-11-18T02:49:09.371Z,94498.84
2022-11-18T02:51:37.817Z,94507.19
2022-11-18T02:54:08.780Z,94501.78
2022-11-18T02:56:37.362Z,94492.22
2022-11-18T02:59:05.869Z,94491.97
2022-11-18T03:01:36.686Z,94486.75
2022-11-18T03:04:04.673Z,94483.59
2022-11-18T03:06:36.970Z,94485.59
2022-11-18T03:09:15.254Z,94476.66
2022-11-18T03:11:53.792Z,94481.75
2022-11-18T03:14:27.052Z,94481.13
2022-11-18T03:17:01.170Z,94477.69
2022-11-18T03:19:41.597Z,94468.31
2022-11-18T03:22:17.197Z,94475.06
2022-11-18T03:24:53.506Z,94471.78
2022-11-18T03:27:25.695Z,94472.94
2022-11-18T03:29:58.407Z,94479.53
2022-11-18T03:32:30.327Z,94469.75
2022-11-18T03:35:03.020Z,94473.03
2022-11-18T03:37:34.372Z,94470.75
2022-11-18T03:40:07.147Z,94469.97
2022-11-18T03:42:39.691Z,94471.59
2022-11-18T03:45:13.499Z,94474.22
2022-11-18T03:47:45.918Z,94486.88
2022-11-18T03:50:18.443Z,94479.53
2022-11-18T03:52:48.320Z,94476.88
2022-11-18T03:55:20.704Z,94480.16
2022-11-18T03:57:56.814Z,94485.66
2022-11-18T04:00:26.117Z,94486.88
2022-11-18T04:02:55.091Z,94488.28
2022-11-18T04:05:22.872Z,94491.78
2022-11-18T04:07:57.161Z,94499.91
2022-11-18T04:10:29.029Z,94493.81
2022-11-18T04:13:06.114Z,94503.41
2022-11-18T04:15:34.711Z,94501.78
2022-11-18T04:18:03.593Z,94498.91
2022-11-18T04:20:32.396Z,94497.50
2022-11-18T04:23:00.129Z,94497.06
2022-11-18T04:25:28.132Z,94501.53
2022-11-18T04:27:55.687Z,94507.88
2022-11-18T04:30:23.276Z,94501.56
2022-11-18T04:32:51.055Z,94497.88
2022-11-18T04:35:19.955Z,94505.66
2022-11-18T04:37:47.594Z,94509.31
2022-11-18T04:40:15.192Z,94504.00
2022-11-18T04:42:42.965Z,94502.78
2022-11-18T04:45:11.778Z,94507.28
2022-11-18T04:47:39.393Z,94510.09
2022-11-18T04:50:07.566Z,94508.69
2022-11-18T04:52:36.464Z,94517.00
2022-11-18T04:55:04.172Z,94507.63
2022-11-18T04:57:31.710Z,94519.19
2022-11-18T04:59:59.248Z,94518.16
2022-11-18T05:02:26.826Z,94512.28
2022-11-18T05:04:54.385Z,94516.31
2022-11-18T05:07:21.958Z,94510.13
2022-11-18T05:09:50.902Z,94504.44
2022-11-18T05:12:36.097Z,94517.06
2022-11-18T05:15:03.593Z,94512.19
2022-11-18T05:17:31.117Z,94519.50
2022-11-18T05:19:58.646Z,94524.78
2022-11-18T05:22:26.203Z,94513.97
2022-11-18T05:24:55.052Z,94518.19
2022-11-18T05:27:22.592Z,94512.16
2022-11-18T05:29:50.112Z,94515.84
2022-11-18T05:32:17.634Z,94512.38
2022-11-18T05:34:45.195Z,94511.38
2022-11-18T05:37:12.914Z,94505.22
2022-11-18T05:39:40.573Z,94512.56
2022-11-18T05:42:32.163Z,94511.97
2022-11-18T05:44:59.682Z,94514.41
2022-11-18T05:47:27.831Z,94513.13
2022-11-18T05:49:55.387Z,94514.97
2022-11-18T05:52:22.889Z,94521.09
2022-11-18T05:54:51.964Z,94517.88
2022-11-18T05:57:20.854Z,94521.97
2022-11-18T05:59:48.398Z,94517.06
2022-11-18T06:02:21.019Z,94515.41
2022-11-18T06:04:52.096Z,94521.97
2022-11-18T06:07:23.373Z,94514.41
2022-11-18T06:09:54.939Z,94511.38
2022-11-18T06:12:29.237Z,94517.06
2022-11-18T06:15:01.094Z,94511.75
2022-11-18T06:17:32.350Z,94520.94
2022-11-18T06:20:00.605Z,94522.75
2022-11-18T06:22:28.163Z,94534.19
2022-11-18T06:24:55.979Z,94537.28
2022-11-18T06:27:25.017Z,94531.75
2022-11-18T06:29:52.544Z,94542.38
2022-11-18T06:32:20.066Z,94545.00
2022-11-18T06:34:47.629Z,94547.44
2022-11-18T06:37:16.367Z,94546.63
2022-11-18T06:39:43.897Z,94551.13
2022-11-18T06:42:11.769Z,94556.22
2022-11-18T06:44:39.767Z,94561.13
2022-11-18T06:47:07.309Z,94552.13
2022-11-18T06:49:34.804Z,94550.09
2022-11-18T06:52:02.336Z,94554.56
2022-11-18T06:54:29.852Z,94560.31
2022-11-18T06:56:57.412Z,94571.50
2022-11-18T06:59:24.938Z,94562.16
2022-11-18T07:01:54.071Z,94570.09
2022-11-18T07:04:22.640Z,94579.91
2022-11-18T07:06:50.294Z,94577.44
2022-11-18T07:09:18.203Z,94589.69
2022-11-18T07:11:45.818Z,94595.59
2022-11-18T07:14:14.464Z,94601.50
2022-11-18T07:16:41.989Z,94596.84
2022-11-18T07:19:12.809Z,94601.97
2022-11-18T07:21:41.391Z,94600.81
2022-11-18T07:24:09.750Z,94599.19
2022-11-18T07:26:37.657Z,94600.09
2022-11-18T07:29:05.233Z,94609.56
2022-11-18T07:31:33.851Z,94601.84
2022-11-18T07:34:01.615Z,94603.91
2022-11-18T07:36:35.666Z,94603.00
2022-11-18T07:39:05.263Z,94611.50
2022-11-18T07:41:33.412Z,94621.41
2022-11-18T07:44:02.518Z,94628.59
2022-11-18T07:46:31.578Z,94632.66
2022-11-18T07:49:00.547Z,94630.78
2022-11-18T07:51:31.032Z,94635.03
2022-11-18T07:53:58.982Z,94630.59
2022-11-18T07:56:26.544Z,94616.41
2022-11-18T07:58:54.889Z,94613.34
2022-11-18T08:01:24.481Z,94613.06
2022-11-18T08:03:52.526Z,94615.50
2022-11-18T08:06:21.055Z,94619.75
2022-11-18T08:08:50.414Z,94625.16
2022-11-18T08:11:22.719Z,94623.34
2022-11-18T08:13:50.695Z,94636.59
2022-11-18T08:16:20.430Z,94634.97
2022-11-18T08:18:48.307Z,94631.63
2022-11-18T08:21:17.514Z,94644.34
2022-11-18T08:23:49.825Z,94633.09
2022-11-18T08:26:18.891Z,94638.72
2022-11-18T08:28:47.237Z,94631.06
2022-11-18T08:31:17.698Z,94637.28
2022-11-18T08:33:45.390Z,94642.88
2022-11-18T08:36:16.377Z,94646.44
2022-11-18T08:38:44.397Z,94643.66
2022-11-18T08:41:13.397Z,94648.81
2022-11-18T08:43:42.560Z,94650.84
2022-11-18T08:46:10.167Z,94658.59
2022-11-18T08:48:37.899Z,94665.56
2022-11-18T08:51:05.818Z,94673.63
2022-11-18T08:53:33.527Z,94672.50
2022-11-18T08:56:02.196Z,94682.06
2022-11-18T08:58:29.898Z,94679.78
2022-11-18T09:00:58.773Z,94684.44
2022-11-18T09:03:26.504Z,94686.53
2022-11-18T09:05:54.048Z,94685.00
2022-11-18T09:08:21.900Z,94692.53
2022-11-18T09:10:49.433Z,94696.53
2022-11-18T09:13:43.451Z,94700.09
2022-11-18T09:16:08.456Z,94699.28
2022-11-18T09:18:36.670Z,94704.19
2022-11-18T09:21:06.525Z,94702.19
2022-11-18T09:23:35.873Z,94698.19
2022-11-18T09:26:05.774Z,94703.28
2022-11-18T09:28:33.656Z,94707.09
2022-11-18T09:31:03.855Z,94710.84
2022-11-18T09:33:33.011Z,94713.00
2022-11-18T09:36:00.506Z,94712.66
2022-11-18T09:38:29.918Z,94716.38
2022-11-18T09:41:05.922Z,94716.13
2022-11-18T09:43:43.997Z,94694.09
2022-11-18T09:46:22.915Z,94721.94
2022-11-18T09:49:09.662Z,94721.66
2022-11-18T09:51:41.339Z,94724.59
2022-11-18T09:54:13.095Z,94727.59
2022-11-18T09:56:41.543Z,94729.13
2022-11-18T09:59:14.876Z,94725.59
2022-11-18T10:01:43.504Z,94726.59
2022-11-18T10:04:17.211Z,94736.50
2022-11-18T10:06:45.634Z,94733.47
2022-11-18T10:09:28.246Z,94732.72
2022-11-18T10:12:26.608Z,94739.34
2022-11-18T10:15:09.909Z,94744.44
2022-11-18T10:17:47.811Z,94750.38
2022-11-18T10:20:26.031Z,94746.56
2022-11-18T10:22:57.376Z,94739.81
2022-11-18T10:25:25.387Z,94745.94
2022-11-18T10:27:52.989Z,94742.56
2022-11-18T10:30:22.614Z,94748.88
2022-11-18T10:32:58.142Z,94754.94
2022-11-18T10:35:30.329Z,94756.13
2022-11-18T10:38:08.127Z,94763.16
2022-11-18T10:40:46.562Z,94762.97
2022-11-18T10:43:34.295Z,94757.28
2022-11-18T10:46:17.378Z,94762.81
2022-11-18T10:48:44.876Z,94762.25
2022-11-18T10:51:24.996Z,94756.00
2022-11-18T10:53:52.515Z,94759.34
2022-11-18T10:56:20.017Z,94766.28
2022-11-18T10:58:50.786Z,94768.47
2022-11-18T11:01:23.821Z,94763.19
2022-11-18T11:04:00.015Z,94764.03
2022-11-18T11:06:34.760Z,94760.56
2022-11-18T11:09:08.028Z,94762.56
2022-11-18T11:11:39.868Z,94764.81
2022-11-18T11:14:20.352Z,94759.53
2022-11-18T11:16:57.480Z,94766.22
2022-11-18T11:19:28.960Z,94766.81
2022-11-18T11:21:58.254Z,94766.09
2022-11-18T11:24:28.203Z,94771.09
2022-11-18T11:30:13.257Z,94765.25
2022-11-18T11:33:06.864Z,94775.38
2022-11-18T11:35:42.125Z,94768.94
2022-11-18T11:38:19.003Z,94774.84
2022-11-18T11:40:59.407Z,94770.41
2022-11-18T11:43:36.192Z,94774.38
2022-11-18T11:46:18.345Z,94777.78
2022-11-18T11:48:58.281Z,94785.00
2022-11-18T11:51:32.484Z,94779.72
2022-11-18T11:54:17.270Z,94787.00
2022-11-18T11:56:50.005Z,94787.56
2022-11-18T11:59:27.010Z,94787.66
2022-11-18T12:02:08.378Z,94784.03
2022-11-18T12:04:43.543Z,94784.38
2022-11-18T12:07:17.349Z,94790.53
2022-11-18T12:10:01.811Z,94792.19
2022-11-18T12:12:35.225Z,94795.03
2022-11-18T12:15:20.730Z,94793.69
2022-11-18T12:17:57.809Z,94790.03
2022-11-18T12:20:40.247Z,94796.94
2022-11-18T12:23:13.191Z,94799.41
2022-11-18T12:26:09.432Z,94795.75
2022-11-18T12:28:41.121Z,94796.25
2022-11-18T12:31:34.467Z,94802.81
2022-11-18T12:34:28.782Z,94806.03
2022-11-18T12:36:56.960Z,94805.78
2022-11-18T12:40:01.043Z,94805.06
2022-11-18T12:43:01.883Z,94799.97
2022-11-18T12:45:55.158Z,94805.81
2022-11-18T12:48:38.407Z,94803.97
2022-11-18T12:51:47.635Z,94806.28
2022-11-18T12:54:31.163Z,94807.81
2022-11-18T12:57:01.378Z,94810.19
2022-11-18T12:59:35.963Z,94805.56
2022-11-18T13:02:17.933Z,94805.81
2022-11-18T13:04:49.663Z,94804.13
2022-11-18T13:07:37.841Z,94806.31
2022-11-18T13:10:20.120Z,94807.63
2022-11-18T13:12:47.667Z,94805.72
2022-11-18T13:15:34.266Z,94804.06
2022-11-18T13:18:13.137Z,94797.84
2022-11-18T13:20:42.239Z,94804.44
2022-11-18T13:23:44.879Z,94803.97
2022-11-18T13:26:20.122Z,94805.25
2022-11-18T13:29:02.773Z,94804.09
2022-11-18T13:31:39.605Z,94808.31
2022-11-18T13:34:17.580Z,94812.03
2022-11-18T13:36:46.752Z,94802.25
2022-11-18T13:39:21.602Z,94803.22
2022-11-18T13:41:59.844Z,94794.38
2022-11-18T13:44:29.006Z,94801.97
2022-11-18T13:47:04.712Z,94806.72
2022-11-18T13:49:50.501Z,94809.91
2022-11-18T13:52:22.969Z,94818.16
2022-11-18T13:54:52.442Z,94817.66
2022-11-18T13:57:23.572Z,94816.34
2022-11-18T13:59:54.862Z,94818.16
2022-11-18T14:02:24.217Z,94821.50
2022-11-18T14:04:57.472Z,94821.38
2022-11-18T14:07:33.991Z,94822.34
2022-11-18T14:10:05.370Z,94824.78
2022-11-18T14:12:34.346Z,94821.31
2022-11-18T14:15:22.494Z,94830.56
2022-11-18T14:17:56.893Z,94831.84
2022-11-18T14:20:25.683Z,94825.88
2022-11-18T14:22:56.835Z,94828.50
2022-11-18T14:25:29.063Z,94829.78
2022-11-18T14:27:57.855Z,94830.03
2022-11-18T14:30:31.587Z,94838.75
2022-11-18T14:33:22.094Z,94833.78
2022-11-18T14:35:51.925Z,94837.59
2022-11-18T14:38:37.012Z,94843.69
2022-11-18T14:41:10.070Z,94845.22
2022-11-18T14:43:37.702Z,94843.06
2022-11-18T14:46:08.246Z,94844.69
2022-11-18T14:48:37.087Z,94849.72
2022-11-18T14:51:04.765Z,94847.97
2022-11-18T14:53:32.275Z,94855.94
2022-11-18T14:56:01.239Z,94858.94
2022-11-18T14:58:28.755Z,94860.28
2022-11-18T15:00:56.334Z,94862.69
2022-11-18T15:03:24.125Z,94867.63
2022-11-18T15:05:53.074Z,94871.03
2022-11-18T15:08:20.581Z,94876.69
2022-11-18T15:10:48.194Z,94878.88
2022-11-18T15:13:15.713Z,94875.09
2022-11-18T15:15:43.259Z,94883.06
2022-11-18T15:18:10.772Z,94870.78
2022-11-18T15:20:38.331Z,94879.97
2022-11-18T15:23:07.220Z,94883.50
2022-11-18T15:25:34.767Z,94880.38
2022-11-18T15:28:02.361Z,94876.31
2022-11-18T15:30:29.885Z,94881.34
2022-11-18T15:32:57.415Z,94896.38
2022-11-18T15:35:25.768Z,94899.84
2022-11-18T15:37:53.919Z,94898.91
2022-11-18T15:40:22.837Z,94904.31
2022-11-18T15:42:52.213Z,94898.06
2022-11-18T15:45:20.193Z,94903.59
2022-11-18T15:47:48.065Z,94903.34
2022-11-18T15:50:15.847Z,94906.41
2022-11-18T15:52:43.377Z,94917.25
2022-11-18T15:55:11.228Z,94916.25
2022-11-18T15:57:40.105Z,94921.28
2022-11-18T16:00:09.169Z,94914.28
2022-11-18T16:02:36.703Z,94924.72
2022-11-18T16:05:04.477Z,94917.25
2022-11-18T16:07:32.037Z,94917.44
2022-11-18T16:10:17.192Z,94921.09
2022-11-18T16:12:49.060Z,94919.44
2022-11-18T16:15:35.716Z,94927.66
2022-11-18T16:18:03.892Z,94921.25
2022-11-18T16:20:31.607Z,94927.91
2022-11-18T16:22:59.446Z,94924.44
2022-11-18T16:25:28.089Z,94932.69
2022-11-18T16:28:02.126Z,94931.34
2022-11-18T16:30:51.000Z,94930.22
2022-11-18T16:33:18.671Z,94926.50
2022-11-18T16:35:49.551Z,94946.25
2022-11-18T16:38:17.076Z,94944.31
2022-11-18T16:40:44.594Z,94946.91
2022-11-18T16:43:13.551Z,94938.66
2022-11-18T16:45:41.070Z,94946.19
2022-11-18T16:48:08.588Z,94940.34
2022-11-18T16:50:36.090Z,94952.34
2022-11-18T16:53:03.621Z,94952.16
2022-11-18T16:55:31.149Z,94953.78
2022-11-18T16:57:58.662Z,94954.63
2022-11-18T17:00:51.383Z,94956.38
2022-11-18T17:03:15.098Z,94970.38
2022-11-18T17:05:42.616Z,94969.28
2022-11-18T17:08:10.119Z,94971.59
2022-11-18T17:10:37.656Z,94980.63
2022-11-18T17:13:05.211Z,94971.34
2022-11-18T17:15:36.490Z,94982.50
2022-11-18T17:18:04.087Z,94978.22
2022-11-18T17:20:31.685Z,94985.78
2022-11-18T17:22:59.208Z,94993.81
2022-11-18T17:25:26.863Z,94990.34
2022-11-18T17:27:54.440Z,94989.28
2022-11-18T17:30:22.199Z,94991.28
2022-11-18T17:32:51.077Z,94995.47
2022-11-18T17:35:18.616Z,95001.88
2022-11-18T17:37:46.152Z,94996.84
2022-11-18T17:40:14.271Z,94997.28
2022-11-18T17:42:41.805Z,95003.34
2022-11-18T17:45:10.350Z,95004.03
2022-11-18T17:47:37.867Z,95003.06
2022-11-18T17:50:07.584Z,95009.34
2022-11-18T17:52:36.246Z,95009.72
2022-11-18T17:55:03.903Z,95017.59
2022-11-18T17:57:31.446Z,95010.97
2022-11-18T17:59:59.077Z,95019.91
2022-11-18T18:02:26.640Z,95023.25
2022-11-18T18:04:55.071Z,95021.94
2022-11-18T18:07:23.975Z,95029.78
2022-11-18T18:09:51.543Z,95019.47
2022-11-18T18:12:36.907Z,95013.78
2022-11-18T18:15:04.911Z,95016.38
2022-11-18T18:17:32.474Z,95019.03
2022-11-18T18:19:59.996Z,95025.44
2022-11-18T18:22:28.880Z,95033.84
2022-11-18T18:24:56.510Z,95030.34
2022-11-18T18:27:24.047Z,95031.88
2022-11-18T18:29:52.490Z,95047.19
2022-11-18T18:32:20.016Z,95035.50
2022-11-18T18:34:47.616Z,95036.66
2022-11-18T18:37:15.182Z,95057.09
2022-11-18T18:39:44.504Z,95053.97
2022-11-18T18:42:12.068Z,95060.38
2022-11-18T18:44:57.149Z,95062.00
2022-11-18T18:47:24.782Z,95060.19
2022-11-18T18:49:52.325Z,95074.88
2022-11-18T18:52:20.089Z,95063.97
2022-11-18T18:54:49.052Z,95065.13
2022-11-18T18:57:16.685Z,95067.13
2022-11-18T18:59:44.231Z,95073.53
2022-11-18T19:02:12.929Z,95075.16
2022-11-18T19:04:40.475Z,95073.16
2022-11-18T19:07:08.100Z,95080.59
2022-11-18T19:09:36.555Z,95073.38
2022-11-18T19:12:23.851Z,95071.03
2022-11-18T19:14:51.476Z,95076.25
2022-11-18T19:17:19.223Z,95082.50
2022-11-18T19:20:04.388Z,95081.56
2022-11-18T19:22:33.791Z,95088.16
2022-11-18T19:25:02.210Z,95091.06
2022-11-18T19:27:31.384Z,95095.38
2022-11-18T19:29:59.102Z,95093.34
2022-11-18T19:32:26.728Z,95077.69
2022-11-18T19:34:54.316Z,95084.38
2022-11-18T19:37:21.966Z,95081.81
2022-11-18T19:39:49.495Z,95071.81
2022-11-18T19:42:17.007Z,95087.13
2022-11-18T19:44:45.917Z,95097.00
2022-11-18T19:47:13.458Z,95106.28
2022-11-18T19:49:40.999Z,95090.63
2022-11-18T19:52:08.582Z,95103.31
2022-11-18T19:54:36.196Z,95101.53
2022-11-18T19:57:03.921Z,95096.94
2022-11-18T19:59:31.651Z,95090.09
2022-11-18T20:02:00.575Z,95097.31
2022-11-18T20:04:28.214Z,95106.72
2022-11-18T20:06:56.690Z,95086.31
2022-11-18T20:09:25.305Z,95091.41
2022-11-18T20:11:53.138Z,95088.16
2022-11-18T20:14:20.740Z,95098.72
2022-11-18T20:16:48.396Z,95112.75
2022-11-18T20:19:17.446Z,95122.63
2022-11-18T20:21:47.759Z,95126.72
2022-11-18T20:24:17.404Z,95137.72
2022-11-18T20:26:45.565Z,95126.03
2022-11-18T20:29:13.450Z,95116.41
2022-11-18T20:31:41.136Z,95116.69
2022-11-18T20:34:09.149Z,95125.72
2022-11-18T20:36:38.046Z,95125.72
2022-11-18T20:39:07.253Z,95130.84
2022-11-18T20:41:36.314Z,95134.94
2022-11-18T20:44:04.671Z,95135.94
2022-11-18T20:46:33.279Z,95133.31
2022-11-18T20:49:00.861Z,95134.44
2022-11-18T20:51:29.381Z,95135.28
2022-11-18T20:53:59.798Z,95128.69
2022-11-18T20:56:28.822Z,95135.59
2022-11-18T20:58:57.350Z,95133.81
2022-11-18T21:01:27.131Z,95141.84
2022-11-18T21:03:56.260Z,95135.34
2022-11-18T21:06:25.744Z,95123.47
2022-11-18T21:08:56.728Z,95127.59
2022-11-18T21:11:26.276Z,95136.75
2022-11-18T21:14:11.907Z,95132.97
2022-11-18T21:16:40.947Z,95140.56
2022-11-18T21:19:08.872Z,95139.38
2022-11-18T21:21:44.467Z,95146.16
2022-11-18T21:24:13.137Z,95158.34
2022-11-18T21:26:43.157Z,95163.59
2022-11-18T21:29:13.093Z,95158.50
2022-11-18T21:31:41.305Z,95162.31
2022-11-18T21:34:09.532Z,95170.19
2022-11-18T21:36:43.018Z,95166.88
2022-11-18T21:39:13.790Z,95166.22
2022-11-18T21:41:42.733Z,95164.25
2022-11-18T21:44:11.619Z,95179.75
2022-11-18T21:46:40.690Z,95172.97
2022-11-18T21:49:09.137Z,95181.34
2022-11-18T21:51:37.416Z,95174.25
2022-11-18T21:54:05.691Z,95186.94
2022-11-18T21:56:33.573Z,95184.31
2022-11-18T21:59:03.380Z,95188.78
2022-11-18T22:01:33.147Z,95189.63
2022-11-18T22:04:02.854Z,95192.22
2022-11-18T22:06:33.475Z,95183.81
2022-11-18T22:09:02.193Z,95197.47
2022-11-18T22:11:29.784Z,95204.28
2022-11-18T22:13:57.936Z,95204.47
2022-11-18T22:16:29.589Z,95199.53
2022-11-18T22:19:01.390Z,95193.88
2022-11-18T22:21:31.963Z,95193.13
2022-11-18T22:24:00.595Z,95203.97
2022-11-18T22:26:29.407Z,95209.94
2022-11-18T22:28:58.724Z,95223.44
2022-11-18T22:31:29.439Z,95220.81
2022-11-18T22:33:57.637Z,95237.28
2022-11-18T22:36:27.655Z,95239.22
2022-11-18T22:38:56.011Z,95245.66
2022-11-18T22:41:57.291Z,95254.13
2022-11-18T22:44:24.857Z,95258.72
2022-11-18T22:46:53.990Z,95257.84
2022-11-18T22:49:21.901Z,95253.00
2022-11-18T22:51:49.560Z,95256.03
2022-11-18T22:57:04.958Z,95276.91
2022-11-18T22:59:32.497Z,95272.59
2022-11-18T23:02:01.659Z,95287.34
2022-11-18T23:04:29.259Z,95290.22
2022-11-18T23:06:56.869Z,95284.97
2022-11-18T23:09:24.440Z,95285.13
2022-11-18T23:12:09.710Z,95280.44
2022-11-18T23:14:37.257Z,95283.88
2022-11-18T23:17:06.348Z,95287.06
2022-11-18T23:19:33.948Z,95284.97
2022-11-18T23:22:01.462Z,95285.28
2022-11-18T23:24:29.004Z,95285.25
2022-11-18T23:26:56.516Z,95285.13
2022-11-18T23:29:24.043Z,95282.53
2022-11-18T23:31:52.802Z,95282.81
2022-11-18T23:34:21.822Z,95273.19
2022-11-18T23:36:49.571Z,95267.09
2022-11-18T23:39:17.651Z,95282.81
2022-11-18T23:41:45.408Z,95273.66
2022-11-18T23:44:12.964Z,95272.66
2022-11-18T23:46:40.548Z,95291.16
2022-11-18T23:49:09.056Z,95279.59
2022-11-18T23:51:37.910Z,95288.38
2022-11-18T23:54:05.584Z,95285.72
2022-11-18T23:56:37.715Z,95286.41
2022-11-18T23:59:06.452Z,95280.03
